Time;durP1;ratioP1;P1;durP2;ratioP2;P2;SDS_P1;SDS_P2;PMS_P1;PMS_P2;Temp;Humidity;BMP_temperature;BMP_pressure;BME280_temperature;BME280_humidity;BME280_pressure;Samples;Min_cycle;Max_cycle;Signal;HPM_P1;HPM_P2
2024/01/02 00:01:28;;;;;;;13.00;5.40;;;5.60;99.90;;;;;;5014153;28;20942;-87
2024/01/02 00:03:57;;;;;;;12.53;5.87;;;5.70;99.90;;;;;;5015691;28;20829;-87
2024/01/02 00:06:25;;;;;;;15.37;6.50;;;5.70;99.90;;;;;;5014456;28;20464;-87
2024/01/02 00:08:55;;;;;;;13.63;5.20;;;5.60;99.90;;;;;;5013598;28;20548;-87
2024/01/02 00:11:23;;;;;;;14.60;5.43;;;5.70;99.90;;;;;;5014125;28;20480;-87
2024/01/02 00:13:52;;;;;;;12.33;4.97;;;5.60;99.90;;;;;;5013669;28;20911;-87
2024/01/02 00:16:20;;;;;;;14.10;5.40;;;5.60;99.90;;;;;;5013434;28;20507;-87
2024/01/02 00:18:48;;;;;;;14.40;6.13;;;5.60;99.90;;;;;;5013806;28;20452;-87
2024/01/02 00:21:17;;;;;;;25.93;5.57;;;5.60;99.90;;;;;;5014820;28;20961;-87
2024/01/02 00:23:45;;;;;;;13.27;5.40;;;5.60;99.90;;;;;;5017511;28;20524;-87
2024/01/02 00:26:15;;;;;;;13.70;5.10;;;5.50;99.90;;;;;;5017286;28;20451;-87
2024/01/02 00:28:43;;;;;;;16.33;7.00;;;5.50;99.90;;;;;;5017025;28;20447;-87
2024/01/02 00:31:11;;;;;;;12.73;5.30;;;5.50;99.90;;;;;;5016674;28;20564;-87
2024/01/02 00:33:41;;;;;;;13.70;5.07;;;5.50;99.90;;;;;;5016942;28;20922;-87
2024/01/02 00:36:11;;;;;;;10.60;5.17;;;5.50;99.90;;;;;;5016630;28;20508;-87
2024/01/02 00:38:39;;;;;;;14.43;5.20;;;5.50;99.90;;;;;;5016962;28;20822;-87
2024/01/02 00:41:08;;;;;;;13.90;6.07;;;5.50;99.90;;;;;;5016332;28;20457;-87
2024/01/02 00:43:37;;;;;;;11.10;5.53;;;5.50;99.90;;;;;;5016149;28;20471;-87
2024/01/02 00:46:06;;;;;;;14.27;5.00;;;5.50;99.90;;;;;;5017625;28;20466;-87
2024/01/02 00:48:34;;;;;;;9.33;4.43;;;5.50;99.90;;;;;;5017651;28;20895;-87
2024/01/02 00:51:03;;;;;;;12.33;5.30;;;5.50;99.90;;;;;;5015863;28;20502;-87
2024/01/02 00:53:31;;;;;;;12.50;5.43;;;5.50;99.90;;;;;;5017726;28;20498;-88
2024/01/02 00:56:00;;;;;;;11.90;4.97;;;5.50;99.90;;;;;;5018682;28;20494;-88
2024/01/02 00:58:28;;;;;;;12.33;5.13;;;5.50;99.90;;;;;;5018887;28;20814;-88
2024/01/02 01:00:58;;;;;;;11.43;5.03;;;5.50;99.90;;;;;;5018703;28;20866;-88
2024/01/02 01:03:26;;;;;;;13.47;5.67;;;5.50;99.90;;;;;;5018565;28;20992;-88
2024/01/02 01:05:55;;;;;;;11.17;5.50;;;5.50;99.90;;;;;;5018369;28;20452;-88
2024/01/02 01:08:23;;;;;;;13.87;5.30;;;5.50;99.90;;;;;;5017883;28;20499;-88
2024/01/02 01:10:52;;;;;;;13.60;5.50;;;5.50;99.90;;;;;;5017604;28;20460;-88
2024/01/02 01:13:20;;;;;;;9.20;5.90;;;5.40;99.90;;;;;;5017978;28;20475;-88
2024/01/02 01:15:48;;;;;;;12.23;5.03;;;5.40;99.90;;;;;;5017653;28;20456;-88
2024/01/02 01:18:18;;;;;;;10.10;4.73;;;5.40;99.90;;;;;;5018788;28;20456;-88
2024/01/02 01:20:47;;;;;;;10.20;5.10;;;5.40;99.90;;;;;;5018520;28;20460;-88
2024/01/02 01:23:15;;;;;;;17.03;5.70;;;5.40;99.90;;;;;;5019328;28;20440;-88
2024/01/02 01:25:44;;;;;;;8.70;4.70;;;5.50;99.90;;;;;;5018294;28;20531;-88
2024/01/02 01:28:12;;;;;;;10.03;4.90;;;5.40;99.90;;;;;;5019956;28;20444;-88
2024/01/02 01:30:40;;;;;;;16.23;5.93;;;5.50;99.90;;;;;;5020080;28;20492;-88
2024/01/02 01:33:09;;;;;;;15.07;5.53;;;5.50;99.90;;;;;;5019716;28;20470;-88
2024/01/02 01:35:39;;;;;;;13.37;5.23;;;5.40;99.90;;;;;;5021869;28;20451;-88
2024/01/02 01:38:08;;;;;;;11.93;5.27;;;5.40;99.90;;;;;;5021965;28;20463;-89
2024/01/02 01:40:36;;;;;;;14.23;5.10;;;5.50;99.90;;;;;;5020989;28;20453;-88
2024/01/02 01:43:12;;;;;;;12.77;4.27;;;5.50;99.90;;;;;;5031237;28;20450;-88
2024/01/02 01:45:40;;;;;;;17.80;5.53;;;5.50;99.90;;;;;;5034193;28;20443;-88
2024/01/02 01:48:09;;;;;;;14.43;6.03;;;5.50;99.90;;;;;;5034570;28;20447;-88
2024/01/02 01:50:40;;;;;;;18.03;7.13;;;5.50;99.90;;;;;;5034090;28;20442;-88
2024/01/02 01:53:10;;;;;;;12.97;4.97;;;5.60;99.90;;;;;;5033938;28;20466;-88
2024/01/02 01:55:39;;;;;;;12.37;5.17;;;5.60;99.90;;;;;;5034383;28;20444;-88
2024/01/02 01:58:07;;;;;;;14.93;6.40;;;5.60;99.90;;;;;;5034094;28;20456;-88
2024/01/02 02:00:36;;;;;;;14.23;5.70;;;5.60;99.90;;;;;;5034448;28;20462;-88
2024/01/02 02:03:06;;;;;;;9.10;6.20;;;5.60;99.90;;;;;;5033980;28;20480;-88
2024/01/02 02:05:36;;;;;;;16.57;6.40;;;5.60;99.90;;;;;;5035063;28;20475;-88
2024/01/02 02:08:07;;;;;;;11.90;5.17;;;5.60;99.90;;;;;;5035071;28;20480;-88
2024/01/02 02:10:35;;;;;;;11.23;5.07;;;5.60;99.90;;;;;;5034576;28;20451;-88
2024/01/02 02:13:04;;;;;;;11.97;5.10;;;5.60;99.90;;;;;;5032554;28;20519;-88
2024/01/02 02:15:34;;;;;;;15.90;5.93;;;5.60;99.90;;;;;;5031273;28;20447;-88
2024/01/02 02:18:02;;;;;;;15.63;5.07;;;5.60;99.90;;;;;;5015826;28;20454;-87
2024/01/02 02:20:31;;;;;;;9.50;5.07;;;5.60;99.90;;;;;;5015451;28;20463;-87
2024/01/02 02:23:01;;;;;;;15.73;6.00;;;5.60;99.90;;;;;;5014912;28;20460;-88
2024/01/02 02:25:29;;;;;;;9.50;4.30;;;5.60;99.90;;;;;;5014968;28;20443;-88
2024/01/02 02:27:57;;;;;;;13.60;5.90;;;5.60;99.90;;;;;;5015460;28;20452;-87
2024/01/02 02:30:25;;;;;;;15.13;4.50;;;5.70;99.90;;;;;;5014888;28;20847;-87
2024/01/02 02:32:55;;;;;;;16.17;6.03;;;5.60;99.90;;;;;;5014660;28;20472;-87
2024/01/02 02:35:23;;;;;;;12.53;5.07;;;5.60;99.90;;;;;;5014950;28;20467;-87
2024/01/02 02:37:53;;;;;;;11.53;4.50;;;5.70;99.90;;;;;;5015040;28;20451;-87
2024/01/02 02:40:24;;;;;;;15.20;5.27;;;5.70;99.90;;;;;;5014740;28;20453;-87
2024/01/02 02:42:53;;;;;;;8.60;4.70;;;5.70;99.90;;;;;;5015270;28;20544;-87
2024/01/02 02:45:21;;;;;;;8.80;4.20;;;5.70;99.90;;;;;;5013341;28;20465;-88
2024/01/02 02:47:50;;;;;;;12.47;3.97;;;5.70;99.90;;;;;;5015336;28;20450;-87
2024/01/02 02:50:18;;;;;;;13.23;5.57;;;5.70;99.90;;;;;;5014334;28;20451;-88
2024/01/02 02:52:47;;;;;;;10.33;4.30;;;5.70;99.90;;;;;;5014367;28;20497;-88
2024/01/02 02:55:15;;;;;;;9.93;5.17;;;5.70;99.90;;;;;;5014356;28;20502;-87
2024/01/02 02:57:45;;;;;;;11.00;4.50;;;5.70;99.90;;;;;;5014288;28;20456;-87
2024/01/02 03:00:14;;;;;;;12.10;4.43;;;5.80;99.90;;;;;;5014065;28;20455;-87
2024/01/02 03:02:42;;;;;;;13.73;4.77;;;5.80;99.90;;;;;;5014221;28;20459;-87
2024/01/02 03:05:11;;;;;;;12.40;4.90;;;5.80;99.90;;;;;;5013779;28;20474;-87
2024/01/02 03:07:41;;;;;;;14.20;4.43;;;5.80;99.90;;;;;;5013537;28;20465;-87
2024/01/02 03:10:10;;;;;;;17.03;5.53;;;5.80;99.90;;;;;;5015125;28;20420;-88
2024/01/02 03:12:38;;;;;;;12.03;3.73;;;5.80;99.90;;;;;;5013446;28;20986;-87
2024/01/02 03:15:09;;;;;;;8.97;3.67;;;5.90;99.90;;;;;;5014098;28;20479;-87
2024/01/02 03:17:38;;;;;;;11.20;4.77;;;5.90;99.90;;;;;;5012740;28;20932;-87
2024/01/02 03:20:07;;;;;;;9.57;4.00;;;5.90;99.90;;;;;;5012732;28;21057;-88
2024/01/02 03:22:36;;;;;;;10.03;3.90;;;5.90;99.90;;;;;;5012695;28;20497;-88
2024/01/02 03:25:06;;;;;;;10.97;3.90;;;5.90;99.90;;;;;;5013740;28;20492;-87
2024/01/02 03:27:34;;;;;;;7.80;3.50;;;5.90;99.90;;;;;;5012490;28;20502;-87
2024/01/02 03:30:03;;;;;;;12.87;3.93;;;6.00;99.90;;;;;;5012488;28;20791;-88
2024/01/02 03:32:34;;;;;;;8.30;3.90;;;6.00;99.90;;;;;;5012407;28;20476;-87
2024/01/02 03:35:02;;;;;;;14.63;4.77;;;6.00;99.90;;;;;;5013685;28;20458;-88
2024/01/02 03:37:31;;;;;;;11.47;4.07;;;6.00;99.90;;;;;;5012343;28;20479;-87
2024/01/02 03:39:59;;;;;;;10.47;4.17;;;6.00;99.90;;;;;;5012387;28;20985;-87
2024/01/02 03:42:27;;;;;;;11.23;4.40;;;6.00;99.90;;;;;;5012342;28;20455;-87
2024/01/02 03:44:56;;;;;;;6.93;3.03;;;6.10;99.90;;;;;;5012248;28;20573;-87
2024/01/02 03:47:25;;;;;;;10.47;3.50;;;6.10;99.90;;;;;;5012357;28;20458;-88
2024/01/02 03:49:55;;;;;;;6.90;3.70;;;6.10;99.90;;;;;;5012582;28;20445;-88
2024/01/02 03:52:23;;;;;;;10.73;3.53;;;6.10;99.90;;;;;;5012559;28;20446;-88
2024/01/02 03:54:51;;;;;;;9.70;4.67;;;6.10;99.90;;;;;;5012338;28;20825;-87
2024/01/02 03:57:20;;;;;;;10.40;3.73;;;6.00;99.90;;;;;;5014823;28;20459;-88
2024/01/02 03:59:48;;;;;;;12.00;5.40;;;6.10;99.90;;;;;;5016333;28;20451;-88
2024/01/02 04:02:16;;;;;;;8.73;3.93;;;6.10;99.90;;;;;;5016570;28;20816;-88
2024/01/02 04:04:45;;;;;;;11.37;4.37;;;6.20;99.90;;;;;;5016772;28;20475;-88
2024/01/02 04:07:14;;;;;;;11.23;5.17;;;6.10;99.90;;;;;;5016443;28;20547;-88
2024/01/02 04:09:43;;;;;;;8.53;4.87;;;6.20;99.90;;;;;;5015859;28;20503;-88
2024/01/02 04:12:11;;;;;;;9.40;3.83;;;6.20;99.90;;;;;;5015756;28;20456;-88
2024/01/02 04:14:39;;;;;;;9.33;5.70;;;6.20;99.90;;;;;;5015609;28;20909;-88
2024/01/02 04:17:09;;;;;;;16.13;7.73;;;6.20;99.90;;;;;;5016992;28;20437;-88
2024/01/02 04:19:37;;;;;;;11.63;4.10;;;6.20;99.90;;;;;;5015166;28;20465;-88
2024/01/02 04:22:05;;;;;;;12.77;4.30;;;6.20;99.90;;;;;;5015620;28;20255;-88
2024/01/02 04:24:35;;;;;;;12.13;3.83;;;6.30;99.90;;;;;;5015475;28;20473;-88
2024/01/02 04:27:04;;;;;;;9.40;4.07;;;6.30;99.90;;;;;;5015488;28;20504;-88
2024/01/02 04:29:32;;;;;;;9.30;3.27;;;6.20;99.90;;;;;;5015554;28;20476;-88
2024/01/02 04:32:00;;;;;;;8.70;3.80;;;6.20;99.90;;;;;;5015503;28;20451;-88
2024/01/02 04:34:29;;;;;;;13.83;4.07;;;6.20;99.90;;;;;;5015161;28;20487;-88
2024/01/02 04:36:59;;;;;;;9.90;3.13;;;6.20;99.90;;;;;;5015287;28;20451;-88
2024/01/02 04:39:27;;;;;;;13.93;4.00;;;6.20;99.90;;;;;;5015231;28;20456;-88
2024/01/02 04:41:57;;;;;;;8.10;3.93;;;6.20;99.90;;;;;;5015431;28;20456;-88
2024/01/02 04:44:25;;;;;;;11.90;3.57;;;6.20;99.90;;;;;;5015178;28;20474;-88
2024/01/02 04:46:54;;;;;;;13.00;3.80;;;6.20;99.90;;;;;;5015099;28;20442;-88
2024/01/02 04:49:22;;;;;;;10.30;4.00;;;6.20;99.90;;;;;;5015225;28;20461;-88
2024/01/02 04:51:50;;;;;;;11.33;4.83;;;6.20;99.90;;;;;;5015104;28;20461;-88
2024/01/02 04:54:19;;;;;;;7.83;3.30;;;6.20;99.90;;;;;;5014942;28;20480;-88
2024/01/02 04:56:47;;;;;;;13.97;4.70;;;6.20;99.90;;;;;;5016101;28;20508;-88
2024/01/02 04:59:17;;;;;;;8.83;3.10;;;6.20;99.90;;;;;;5014909;28;20484;-88
2024/01/02 05:01:45;;;;;;;8.17;3.20;;;6.20;99.90;;;;;;5015001;28;20497;-88
2024/01/02 05:04:13;;;;;;;12.53;4.97;;;6.20;99.90;;;;;;5015897;28;20984;-88
2024/01/02 05:06:42;;;;;;;9.60;3.83;;;6.20;99.90;;;;;;5015461;28;20959;-88
2024/01/02 05:09:10;;;;;;;9.20;3.80;;;6.20;99.90;;;;;;5014459;28;20472;-88
2024/01/02 05:11:40;;;;;;;9.90;4.17;;;6.20;99.90;;;;;;5014993;28;20445;-88
2024/01/02 05:14:08;;;;;;;10.23;3.90;;;6.20;99.90;;;;;;5014938;28;20484;-88
2024/01/02 05:16:38;;;;;;;7.37;3.63;;;6.20;99.90;;;;;;5016456;28;20430;-88
2024/01/02 05:19:07;;;;;;;12.47;3.70;;;6.20;99.90;;;;;;5014726;28;20458;-88
2024/01/02 05:21:36;;;;;;;11.10;4.53;;;6.20;99.90;;;;;;5015238;28;20499;-88
2024/01/02 05:24:05;;;;;;;8.13;3.50;;;6.20;99.90;;;;;;5014943;28;20468;-88
2024/01/02 05:26:33;;;;;;;10.17;3.43;;;6.20;99.90;;;;;;5014916;28;20449;-88
2024/01/02 05:29:01;;;;;;;7.87;3.20;;;6.20;99.90;;;;;;5014860;28;20489;-88
2024/01/02 05:31:30;;;;;;;11.30;3.20;;;6.20;99.90;;;;;;5014804;28;20480;-88
2024/01/02 05:34:00;;;;;;;11.10;5.20;;;6.20;99.90;;;;;;5014744;28;20479;-88
2024/01/02 05:36:28;;;;;;;8.00;3.53;;;6.20;99.90;;;;;;5015692;28;20448;-88
2024/01/02 05:38:56;;;;;;;10.00;3.30;;;6.20;99.90;;;;;;5014955;28;20447;-88
2024/01/02 05:41:25;;;;;;;8.97;3.93;;;6.10;99.90;;;;;;5014445;28;20452;-88
2024/01/02 05:43:53;;;;;;;11.83;5.40;;;6.10;99.90;;;;;;5014290;28;20464;-88
2024/01/02 05:46:21;;;;;;;8.00;3.97;;;6.20;99.90;;;;;;5014431;28;20465;-88
2024/01/02 05:48:50;;;;;;;8.73;3.70;;;6.20;99.90;;;;;;5014956;28;20454;-88
2024/01/02 05:51:20;;;;;;;11.43;2.80;;;6.20;99.90;;;;;;5014409;28;20456;-88
2024/01/02 05:53:49;;;;;;;9.43;3.57;;;6.10;99.90;;;;;;5014042;28;20483;-88
2024/01/02 05:56:17;;;;;;;10.47;3.37;;;6.20;99.90;;;;;;5014445;28;20534;-88
2024/01/02 05:58:46;;;;;;;8.97;2.80;;;6.20;99.90;;;;;;5014325;28;20452;-88
2024/01/02 06:01:14;;;;;;;7.60;3.20;;;6.20;99.90;;;;;;5013999;28;20503;-88
2024/01/02 06:03:43;;;;;;;5.10;3.00;;;6.20;99.90;;;;;;5015481;28;20457;-88
2024/01/02 06:06:11;;;;;;;6.30;3.47;;;6.20;99.90;;;;;;5014402;28;21024;-88
2024/01/02 06:08:45;;;;;;;6.97;3.40;;;6.20;99.90;;;;;;5015174;28;20461;-88
2024/01/02 06:11:13;;;;;;;8.13;2.80;;;6.20;99.90;;;;;;5013976;28;20453;-88
2024/01/02 06:13:43;;;;;;;7.67;2.83;;;6.20;99.90;;;;;;5014006;28;21016;-88
2024/01/02 06:16:11;;;;;;;8.57;3.57;;;6.20;99.90;;;;;;5013989;28;20499;-88
2024/01/02 06:18:40;;;;;;;7.60;3.07;;;6.20;99.90;;;;;;5013930;28;20480;-88
2024/01/02 06:21:08;;;;;;;7.60;3.00;;;6.20;99.90;;;;;;5013480;28;20453;-88
2024/01/02 06:23:37;;;;;;;6.23;3.37;;;6.20;99.90;;;;;;5013544;28;20473;-88
2024/01/02 06:26:19;;;;;;;11.00;3.27;;;6.20;99.90;;;;;;5013480;28;20457;-88
2024/01/02 06:28:47;;;;;;;9.30;3.30;;;6.20;99.90;;;;;;5013415;28;20513;-88
2024/01/02 06:31:16;;;;;;;7.77;4.10;;;6.20;99.90;;;;;;5013350;28;20515;-88
2024/01/02 06:33:45;;;;;;;8.07;3.67;;;6.20;99.90;;;;;;5013474;28;20526;-88
2024/01/02 06:36:14;;;;;;;6.27;3.00;;;6.20;99.90;;;;;;5013337;28;20463;-88
2024/01/02 06:38:42;;;;;;;7.23;4.00;;;6.20;99.90;;;;;;5013333;28;20484;-88
2024/01/02 06:41:11;;;;;;;5.80;3.60;;;6.30;99.90;;;;;;5013227;28;20869;-88
2024/01/02 06:43:41;;;;;;;7.40;3.80;;;6.30;99.90;;;;;;5013314;28;20575;-89
2024/01/02 06:46:12;;;;;;;5.50;3.63;;;6.30;99.90;;;;;;5013182;28;20537;-88
2024/01/02 06:48:41;;;;;;;6.83;3.60;;;6.30;99.90;;;;;;5013105;28;20512;-88
2024/01/02 06:51:10;;;;;;;8.43;3.53;;;6.30;99.90;;;;;;5014159;28;20534;-88
2024/01/02 06:53:39;;;;;;;7.70;3.97;;;6.30;99.90;;;;;;5012929;28;20481;-88
2024/01/02 06:56:08;;;;;;;7.80;3.57;;;6.30;99.90;;;;;;5013330;28;20473;-88
2024/01/02 06:58:37;;;;;;;10.83;4.00;;;6.30;99.90;;;;;;5013033;28;20855;-88
2024/01/02 07:01:07;;;;;;;7.20;3.87;;;6.30;99.90;;;;;;5012904;28;20457;-88
2024/01/02 07:03:36;;;;;;;6.67;3.40;;;6.30;99.90;;;;;;5013158;28;20470;-89
2024/01/02 07:06:06;;;;;;;8.13;4.63;;;6.30;99.90;;;;;;5012721;28;21052;-89
2024/01/02 07:08:34;;;;;;;8.23;3.60;;;6.30;99.90;;;;;;5013609;28;20504;-89
2024/01/02 07:11:03;;;;;;;8.40;3.97;;;6.30;99.90;;;;;;5012785;28;20548;-89
2024/01/02 07:13:32;;;;;;;10.60;4.30;;;6.30;99.90;;;;;;5012569;28;20994;-89
2024/01/02 07:16:00;;;;;;;7.17;4.17;;;6.30;99.90;;;;;;5012617;28;20472;-89
2024/01/02 07:18:30;;;;;;;6.17;4.53;;;6.30;99.90;;;;;;5012739;28;20454;-88
2024/01/02 07:20:59;;;;;;;8.60;4.70;;;6.30;99.90;;;;;;5012557;28;20489;-89
2024/01/02 07:23:27;;;;;;;5.20;4.17;;;6.40;99.90;;;;;;5012721;28;20867;-89
2024/01/02 07:25:55;;;;;;;8.83;4.83;;;6.30;99.90;;;;;;5012456;28;20543;-89
2024/01/02 07:28:24;;;;;;;7.43;4.90;;;6.30;99.90;;;;;;5012420;28;20536;-89
2024/01/02 07:30:52;;;;;;;7.83;5.40;;;6.30;99.90;;;;;;5012634;28;20461;-89
2024/01/02 07:33:21;;;;;;;5.63;4.57;;;6.30;99.90;;;;;;5016420;28;20453;-89
2024/01/02 07:35:50;;;;;;;7.13;4.63;;;6.40;99.90;;;;;;5016633;28;20470;-89
2024/01/02 07:38:19;;;;;;;6.03;4.73;;;6.30;99.90;;;;;;5016863;28;20471;-89
2024/01/02 07:40:47;;;;;;;6.23;5.00;;;6.30;99.90;;;;;;5016381;28;20453;-89
2024/01/02 07:43:15;;;;;;;5.97;4.30;;;6.30;99.90;;;;;;5017494;28;20442;-89
2024/01/02 07:45:44;;;;;;;5.20;3.47;;;6.30;99.90;;;;;;5016406;28;20951;-88
2024/01/02 07:48:12;;;;;;;6.10;5.10;;;6.30;99.90;;;;;;5016374;28;20446;-89
2024/01/02 07:50:41;;;;;;;6.10;4.87;;;6.40;99.90;;;;;;5016295;28;20464;-90
2024/01/02 07:53:11;;;;;;;7.60;4.30;;;6.40;99.90;;;;;;5016296;28;20963;-89
2024/01/02 07:55:40;;;;;;;5.67;4.33;;;6.40;99.90;;;;;;5017625;28;20516;-89
2024/01/02 07:58:08;;;;;;;5.03;4.50;;;6.40;99.90;;;;;;5016258;28;20459;-89
2024/01/02 08:00:36;;;;;;;5.77;4.20;;;6.40;99.90;;;;;;5015941;28;20453;-89
2024/01/02 08:03:05;;;;;;;10.20;4.70;;;6.40;99.90;;;;;;5016139;28;20445;-89
2024/01/02 08:05:34;;;;;;;5.77;4.47;;;6.40;99.90;;;;;;5016312;28;20462;-89
2024/01/02 08:08:03;;;;;;;5.13;4.50;;;6.40;99.90;;;;;;5015802;28;20506;-89
2024/01/02 08:10:33;;;;;;;6.17;4.47;;;6.40;99.90;;;;;;5015922;28;20461;-89
2024/01/02 08:13:03;;;;;;;6.30;4.77;;;6.40;99.90;;;;;;5000527;28;20441;-89
2024/01/02 08:15:31;;;;;;;4.97;3.80;;;6.40;99.90;;;;;;5016133;28;20522;-89
2024/01/02 08:18:08;;;;;;;5.93;4.73;;;6.40;99.90;;;;;;5015693;28;20455;-89
2024/01/02 08:20:39;;;;;;;5.37;4.90;;;6.40;99.90;;;;;;5015897;28;20455;-89
2024/01/02 08:23:08;;;;;;;4.40;3.97;;;6.40;99.90;;;;;;5015905;28;20553;-89
2024/01/02 08:25:39;;;;;;;4.80;3.90;;;6.40;99.90;;;;;;5015771;28;20450;-89
2024/01/02 08:28:07;;;;;;;4.40;4.00;;;6.40;99.90;;;;;;5016609;28;20467;-89
2024/01/02 08:30:36;;;;;;;4.50;3.87;;;6.40;99.90;;;;;;5016698;28;20467;-89
2024/01/02 08:33:05;;;;;;;5.87;4.33;;;6.40;99.90;;;;;;5015419;28;20458;-90
2024/01/02 08:35:34;;;;;;;4.87;4.13;;;6.40;99.90;;;;;;5015202;28;20539;-89
2024/01/02 08:38:03;;;;;;;3.50;3.20;;;6.50;99.90;;;;;;5016616;28;20434;-88
2024/01/02 08:40:32;;;;;;;3.37;3.07;;;6.50;99.90;;;;;;5015437;28;20536;-88
2024/01/02 08:43:02;;;;;;;3.97;3.10;;;6.50;99.90;;;;;;5015057;28;20453;-89
2024/01/02 08:45:30;;;;;;;2.83;2.60;;;6.50;99.90;;;;;;5015173;28;20455;-89
2024/01/02 08:47:58;;;;;;;2.67;2.23;;;6.50;99.90;;;;;;5016305;28;20496;-89
2024/01/02 08:50:29;;;;;;;3.07;2.50;;;6.50;99.90;;;;;;5015411;28;20550;-89
2024/01/02 08:52:58;;;;;;;3.60;2.90;;;6.50;99.90;;;;;;5016288;28;20419;-89
2024/01/02 08:56:11;;;;;;;2.77;2.47;;;6.50;99.90;;;;;;5014876;28;20481;-89
2024/01/02 08:58:42;;;;;;;2.70;2.03;;;6.50;99.90;;;;;;5016528;28;20484;-89
2024/01/02 09:01:12;;;;;;;2.87;2.50;;;6.40;99.90;;;;;;5016336;28;20777;-89
2024/01/02 09:03:41;;;;;;;2.90;2.30;;;6.50;99.90;;;;;;5014868;28;20843;-89
2024/01/02 09:06:09;;;;;;;3.30;2.60;;;6.50;99.90;;;;;;5014675;28;20460;-89
2024/01/02 09:08:38;;;;;;;3.53;1.97;;;6.50;99.90;;;;;;5014658;28;20457;-89
2024/01/02 09:11:10;;;;;;;2.67;2.03;;;6.50;99.90;;;;;;5014723;28;20466;-89
2024/01/02 09:13:40;;;;;;;2.33;2.13;;;6.50;99.90;;;;;;5014648;28;20573;-89
2024/01/02 09:16:09;;;;;;;2.43;2.00;;;6.50;99.90;;;;;;5014529;28;20480;-89
2024/01/02 09:18:37;;;;;;;3.60;2.10;;;6.50;99.90;;;;;;5014530;28;20446;-89
2024/01/02 09:21:06;;;;;;;2.40;2.20;;;6.50;99.90;;;;;;5015085;28;20869;-89
2024/01/02 09:23:34;;;;;;;2.53;2.10;;;6.50;99.90;;;;;;5014729;28;20597;-89
2024/01/02 09:26:07;;;;;;;2.83;2.00;;;6.50;99.90;;;;;;5014799;28;20459;-89
2024/01/02 09:28:37;;;;;;;2.07;1.77;;;6.60;99.90;;;;;;5014490;28;20444;-89
2024/01/02 09:31:07;;;;;;;2.23;2.03;;;6.50;99.90;;;;;;5014416;28;20458;-89
2024/01/02 09:33:35;;;;;;;2.27;2.07;;;6.50;99.90;;;;;;5014564;28;20573;-89
2024/01/02 09:36:04;;;;;;;2.53;1.97;;;6.60;99.90;;;;;;5014410;28;20537;-88
2024/01/02 09:38:32;;;;;;;2.83;2.00;;;6.60;99.90;;;;;;5014455;28;20449;-89
2024/01/02 09:41:17;;;;;;;2.10;1.90;;;6.60;99.90;;;;;;5014447;28;20452;-89
2024/01/02 09:44:00;;;;;;;1.80;1.57;;;6.60;99.90;;;;;;5014241;28;20469;-89
2024/01/02 09:46:40;;;;;;;2.13;1.90;;;6.60;99.90;;;;;;5017328;28;20452;-89
2024/01/02 09:49:25;;;;;;;2.47;1.87;;;6.60;99.90;;;;;;5015746;28;20447;-89
2024/01/02 09:52:07;;;;;;;2.00;1.73;;;6.60;99.90;;;;;;5015029;28;20448;-89
2024/01/02 09:54:50;;;;;;;2.13;1.83;;;6.60;99.90;;;;;;5013654;28;20475;-89
2024/01/02 09:57:25;;;;;;;3.23;2.60;;;6.60;99.90;;;;;;5014088;28;20469;-89
2024/01/02 10:00:05;;;;;;;2.50;1.87;;;6.60;99.90;;;;;;5014088;28;20452;-89
2024/01/02 10:02:58;;;;;;;4.00;3.60;;;6.60;99.90;;;;;;5015006;28;20512;-89
2024/01/02 10:05:43;;;;;;;3.37;3.07;;;6.60;99.90;;;;;;5014351;28;20501;-89
2024/01/02 10:08:30;;;;;;;3.60;3.30;;;6.60;99.90;;;;;;5013641;28;21063;-89
2024/01/02 10:11:08;;;;;;;2.60;2.40;;;6.70;99.90;;;;;;5013784;28;20548;-89
2024/01/02 10:13:46;;;;;;;2.30;2.10;;;6.70;99.90;;;;;;5014441;28;20511;-89
2024/01/02 10:16:23;;;;;;;2.63;2.10;;;6.70;99.90;;;;;;5013577;28;20472;-89
2024/01/02 10:19:03;;;;;;;2.40;2.20;;;6.70;99.90;;;;;;5013543;28;20447;-89
2024/01/02 10:21:42;;;;;;;2.33;2.13;;;6.70;99.90;;;;;;5014227;28;20445;-89
2024/01/02 10:24:26;;;;;;;2.07;1.87;;;6.70;99.90;;;;;;5013428;28;20484;-90
2024/01/02 10:27:07;;;;;;;2.07;1.87;;;6.80;99.90;;;;;;5013376;28;20453;-89
2024/01/02 10:29:46;;;;;;;2.20;2.00;;;6.80;99.90;;;;;;5014822;28;20446;-89
2024/01/02 10:32:21;;;;;;;2.53;2.10;;;6.80;99.90;;;;;;5013220;28;20499;-90
2024/01/02 10:35:03;;;;;;;2.30;2.10;;;6.80;99.90;;;;;;5013284;28;20470;-89
2024/01/02 10:37:39;;;;;;;2.20;1.93;;;6.80;99.90;;;;;;5013169;28;20505;-89
2024/01/02 10:40:13;;;;;;;2.03;1.83;;;6.80;99.90;;;;;;5013459;28;20453;-89
2024/01/02 10:42:53;;;;;;;2.57;2.17;;;6.80;99.90;;;;;;5013392;28;20474;-89
2024/01/02 10:45:26;;;;;;;2.23;2.03;;;6.90;99.90;;;;;;5013046;28;20558;-89
2024/01/02 10:48:09;;;;;;;4.50;4.10;;;6.90;99.90;;;;;;5013097;28;20812;-89
2024/01/02 10:50:51;;;;;;;5.07;4.67;;;6.90;99.90;;;;;;5012895;28;20818;-89
2024/01/02 10:53:31;;;;;;;3.20;3.00;;;6.90;99.90;;;;;;5013079;28;20482;-90
2024/01/02 10:56:09;;;;;;;2.90;2.70;;;6.90;99.90;;;;;;5013753;28;20762;-90
2024/01/02 10:58:49;;;;;;;3.20;2.90;;;6.90;99.90;;;;;;5013209;28;20442;-90
2024/01/02 11:01:22;;;;;;;3.37;3.07;;;6.90;99.90;;;;;;5013014;28;20889;-90
2024/01/02 11:03:56;;;;;;;3.10;2.90;;;6.90;99.90;;;;;;5012970;28;20469;-89
2024/01/02 11:06:36;;;;;;;3.83;3.57;;;6.90;99.90;;;;;;5012119;28;20949;-89
2024/01/02 11:09:11;;;;;;;4.20;3.80;;;7.00;99.90;;;;;;5012942;28;20492;-89
2024/01/02 11:11:41;;;;;;;4.00;3.70;;;7.00;99.90;;;;;;5014275;28;20434;-90
2024/01/02 11:14:19;;;;;;;4.73;4.43;;;7.00;99.90;;;;;;5012949;28;20503;-89
2024/01/02 11:16:51;;;;;;;4.93;4.53;;;7.00;99.90;;;;;;5013927;28;20872;-89
2024/01/02 11:19:22;;;;;;;5.70;5.20;;;7.10;99.90;;;;;;5012754;28;20452;-89
2024/01/02 11:22:01;;;;;;;5.63;5.23;;;7.10;99.90;;;;;;5013864;28;20501;-90
2024/01/02 11:24:32;;;;;;;6.93;6.43;;;7.10;99.90;;;;;;5012587;28;20479;-89
2024/01/02 11:27:04;;;;;;;6.60;6.10;;;7.10;99.90;;;;;;5012549;28;20443;-89
2024/01/02 11:29:36;;;;;;;6.83;6.27;;;7.10;99.90;;;;;;5012917;28;20450;-90
2024/01/02 11:32:15;;;;;;;7.00;6.50;;;7.20;99.90;;;;;;5012678;28;20450;-90
2024/01/02 11:34:57;;;;;;;9.17;8.50;;;7.20;99.90;;;;;;5013078;28;20474;-90
2024/01/02 11:37:36;;;;;;;9.20;8.50;;;7.20;99.90;;;;;;5012792;28;20473;-90
2024/01/02 11:40:21;;;;;;;9.27;8.57;;;7.30;99.90;;;;;;5012612;28;20546;-90
2024/01/02 11:42:55;;;;;;;9.40;8.70;;;7.30;99.90;;;;;;5012630;28;20470;-90
2024/01/02 11:45:26;;;;;;;8.50;7.90;;;7.30;99.90;;;;;;5012806;28;20471;-90
2024/01/02 11:48:07;;;;;;;9.97;9.20;;;7.30;99.90;;;;;;5014574;28;20827;-90
2024/01/02 11:50:45;;;;;;;11.10;10.20;;;7.40;99.90;;;;;;5018109;28;20454;-90
2024/01/02 11:53:23;;;;;;;8.87;8.17;;;7.40;99.90;;;;;;5016814;28;20525;-89
2024/01/02 11:55:56;;;;;;;9.67;8.97;;;7.40;99.90;;;;;;5017860;28;20454;-89
2024/01/02 11:58:27;;;;;;;9.57;8.77;;;7.40;99.90;;;;;;5018015;28;20471;-89
2024/01/02 12:01:09;;;;;;;9.53;8.73;;;7.50;99.90;;;;;;5016945;28;20443;-89
2024/01/02 12:03:44;;;;;;;10.20;9.40;;;7.50;99.90;;;;;;5031788;28;20505;-89
2024/01/02 12:06:23;;;;;;;10.43;9.63;;;7.50;99.90;;;;;;5032296;28;20474;-89
2024/01/02 12:09:01;;;;;;;10.53;9.73;;;7.60;99.90;;;;;;5032420;28;20454;-89
2024/01/02 12:11:30;;;;;;;10.17;9.37;;;7.60;99.90;;;;;;5031200;28;20443;-89
2024/01/02 12:14:11;;;;;;;10.60;9.70;;;7.60;99.90;;;;;;5030734;28;20472;-89
2024/01/02 12:16:41;;;;;;;11.57;10.67;;;7.70;99.90;;;;;;5031115;28;20451;-89
2024/01/02 12:19:14;;;;;;;12.30;11.30;;;7.70;99.90;;;;;;5034790;28;20449;-89
2024/01/02 12:21:46;;;;;;;11.40;10.50;;;7.80;99.90;;;;;;5032638;28;20457;-88
2024/01/02 12:24:16;;;;;;;11.50;10.60;;;7.80;99.90;;;;;;5033235;28;20468;-89
2024/01/02 12:26:45;;;;;;;11.83;10.80;;;7.80;99.90;;;;;;5031845;28;20471;-89
2024/01/02 12:29:20;;;;;;;11.67;10.73;;;7.90;99.90;;;;;;5032912;28;20491;-88
2024/01/02 12:31:50;;;;;;;12.80;11.50;;;7.90;99.90;;;;;;5031322;28;20461;-89
2024/01/02 12:34:26;;;;;;;12.60;11.50;;;8.00;99.90;;;;;;5033594;28;20464;-88
2024/01/02 12:37:03;;;;;;;12.30;11.20;;;8.00;99.90;;;;;;5015870;28;20450;-89
2024/01/02 12:39:39;;;;;;;12.70;11.60;;;8.00;99.90;;;;;;5016554;28;20451;-89
2024/01/02 12:42:14;;;;;;;12.50;11.50;;;8.10;99.90;;;;;;5015830;28;20474;-88
2024/01/02 12:44:46;;;;;;;13.10;12.10;;;8.10;99.90;;;;;;5015553;28;20527;-89
2024/01/02 12:47:21;;;;;;;14.33;13.13;;;8.10;99.90;;;;;;5015996;28;20483;-89
2024/01/02 12:50:00;;;;;;;12.80;11.80;;;8.20;99.90;;;;;;5015906;28;20450;-89
2024/01/02 12:52:33;;;;;;;12.70;11.60;;;8.20;99.90;;;;;;5015747;28;20462;-88
2024/01/02 12:55:07;;;;;;;14.30;13.00;;;8.20;99.90;;;;;;5015151;28;20468;-88
2024/01/02 12:57:37;;;;;;;14.37;13.10;;;8.20;99.90;;;;;;5015145;28;20574;-88
2024/01/02 13:00:08;;;;;;;14.47;13.17;;;8.30;99.90;;;;;;5015084;28;20459;-88
2024/01/02 13:02:38;;;;;;;12.90;11.73;;;8.30;99.90;;;;;;5016263;28;20905;-88
2024/01/02 13:05:07;;;;;;;14.50;13.20;;;8.40;99.90;;;;;;5014791;28;20570;-88
2024/01/02 13:07:37;;;;;;;15.27;13.83;;;8.40;99.90;;;;;;5014912;28;21020;-88
2024/01/02 13:10:07;;;;;;;14.60;13.17;;;8.40;99.90;;;;;;5014804;28;20458;-88
2024/01/02 13:12:40;;;;;;;15.23;13.73;;;8.40;99.90;;;;;;5015180;28;20450;-88